createdAt,value
2022-10-01T00:01:31.239Z,9.30
2022-10-01T00:06:34.567Z,9.32
2022-10-01T00:11:37.675Z,9.26
2022-10-01T00:16:40.408Z,9.17
2022-10-01T00:21:43.275Z,9.16
2022-10-01T00:26:46.179Z,9.18
2022-10-01T00:31:49.246Z,9.21
2022-10-01T00:36:52.021Z,9.17
2022-10-01T00:41:54.729Z,9.11
2022-10-01T00:47:08.135Z,9.08
2022-10-01T00:52:18.737Z,9.10
2022-10-01T00:57:25.291Z,9.12
2022-10-01T01:02:28.062Z,9.13
2022-10-01T01:07:32.879Z,9.13
2022-10-01T01:12:52.126Z,9.08
2022-10-01T01:18:09.793Z,9.03
2022-10-01T01:23:15.277Z,9.05
2022-10-01T01:28:24.806Z,9.07
2022-10-01T01:33:32.418Z,9.05
2022-10-01T01:38:49.253Z,9.00
2022-10-01T01:43:56.561Z,8.96
2022-10-01T01:49:01.190Z,8.91
2022-10-01T01:54:04.017Z,8.94
2022-10-01T01:59:08.566Z,9.00
2022-10-01T02:04:27.987Z,9.08
2022-10-01T02:09:49.077Z,9.07
2022-10-01T02:15:08.668Z,8.99
2022-10-01T02:20:28.197Z,8.89
2022-10-01T02:25:37.825Z,8.83
2022-10-01T02:30:44.346Z,8.84
2022-10-01T02:35:49.155Z,8.83
2022-10-01T02:40:59.029Z,8.78
2022-10-01T02:46:16.754Z,8.70
2022-10-01T02:51:32.479Z,8.62
2022-10-01T02:57:11.736Z,8.58
2022-10-01T03:02:15.051Z,8.62
2022-10-01T03:07:18.692Z,8.62
2022-10-01T03:12:22.608Z,8.61
2022-10-01T03:17:25.595Z,8.52
2022-10-01T03:22:28.286Z,8.41
2022-10-01T03:27:31.209Z,8.36
2022-10-01T03:32:34.205Z,8.34
2022-10-01T03:37:37.010Z,8.31
2022-10-01T03:42:39.711Z,8.25
2022-10-01T03:47:42.395Z,8.17
2022-10-01T03:52:46.232Z,8.11
2022-10-01T03:57:48.858Z,8.10
2022-10-01T04:02:51.557Z,8.06
2022-10-01T04:07:54.343Z,8.01
2022-10-01T04:12:57.481Z,7.94
2022-10-01T04:18:01.877Z,7.87
2022-10-01T04:23:05.518Z,7.80
2022-10-01T04:28:12.092Z,7.77
2022-10-01T04:33:16.786Z,7.79
2022-10-01T04:38:19.654Z,7.77
2022-10-01T04:43:22.321Z,7.74
2022-10-01T04:48:25.132Z,7.70
2022-10-01T04:53:27.934Z,7.68
2022-10-01T04:58:31.555Z,7.71
2022-10-01T05:03:34.570Z,7.73
2022-10-01T05:08:38.178Z,7.73
2022-10-01T05:13:42.508Z,7.73
2022-10-01T05:18:45.419Z,7.68
2022-10-01T05:23:48.081Z,7.64
2022-10-01T05:28:51.328Z,7.67
2022-10-01T05:33:54.026Z,7.75
2022-10-01T05:38:56.681Z,7.85
2022-10-01T05:43:59.322Z,7.93
2022-10-01T05:49:02.075Z,7.98
2022-10-01T05:54:04.943Z,8.02
2022-10-01T05:59:07.768Z,8.13
2022-10-01T06:04:10.941Z,8.27
2022-10-01T06:09:13.942Z,8.41
2022-10-01T06:14:17.458Z,8.55
2022-10-01T06:19:20.259Z,8.65
2022-10-01T06:24:22.926Z,8.72
2022-10-01T06:29:25.659Z,8.84
2022-10-01T06:34:28.354Z,9.02
2022-10-01T06:39:31.157Z,9.26
2022-10-01T06:44:33.772Z,9.44
2022-10-01T06:49:36.553Z,9.63
2022-10-01T06:54:39.171Z,9.84
2022-10-01T06:59:41.847Z,10.12
2022-10-01T07:04:47.823Z,10.41
2022-10-01T07:09:50.624Z,10.68
2022-10-01T07:14:54.056Z,10.92
2022-10-01T07:19:56.746Z,11.17
2022-10-01T07:24:59.436Z,11.48
2022-10-01T07:30:02.460Z,11.78
2022-10-01T07:35:06.889Z,12.00
2022-10-01T07:40:09.801Z,12.22
2022-10-01T07:45:12.585Z,12.44
2022-10-01T07:50:15.703Z,12.70
2022-10-01T07:55:18.802Z,12.89
2022-10-01T08:00:22.768Z,13.09
2022-10-01T08:05:29.138Z,13.26
2022-10-01T08:10:36.737Z,13.44
2022-10-01T08:15:39.938Z,13.67
2022-10-01T08:20:42.561Z,13.92
2022-10-01T08:25:45.950Z,14.18
2022-10-01T08:30:48.648Z,14.38
2022-10-01T08:35:51.349Z,14.51
2022-10-01T08:40:54.463Z,14.70
2022-10-01T08:46:02.728Z,14.91
2022-10-01T08:51:06.178Z,15.07
2022-10-01T08:56:36.661Z,15.16
2022-10-01T09:01:39.652Z,15.32
2022-10-01T09:06:49.318Z,15.53
2022-10-01T09:12:10.525Z,15.77
2022-10-01T09:17:37.331Z,15.90
2022-10-01T09:22:44.519Z,15.98
2022-10-01T09:27:48.021Z,16.20
2022-10-01T09:32:53.294Z,16.50
2022-10-01T09:38:01.118Z,16.74
2022-10-01T09:43:08.284Z,16.92
2022-10-01T09:48:25.464Z,17.07
2022-10-01T09:53:35.833Z,17.26
2022-10-01T09:58:41.869Z,17.54
2022-10-01T10:03:54.559Z,17.69
2022-10-01T10:09:00.378Z,17.82
2022-10-01T10:14:04.753Z,18.03
2022-10-01T10:19:16.715Z,18.28
2022-10-01T10:24:33.715Z,18.49
2022-10-01T10:29:37.437Z,18.59
2022-10-01T10:34:47.049Z,18.52
2022-10-01T10:39:52.194Z,18.72
2022-10-01T10:45:01.268Z,19.40
2022-10-01T10:50:06.166Z,20.68
2022-10-01T10:55:22.603Z,21.97
2022-10-01T11:00:26.413Z,23.16
2022-10-01T11:05:32.877Z,24.23
2022-10-01T11:10:35.614Z,25.24
2022-10-01T11:15:47.766Z,26.28
2022-10-01T11:21:17.186Z,27.22
2022-10-01T11:26:37.447Z,28.00
2022-10-01T11:32:02.968Z,26.83
2022-10-01T11:37:24.398Z,26.19
2022-10-01T11:42:34.991Z,25.96
2022-10-01T11:47:45.187Z,24.50
2022-10-01T11:53:06.201Z,24.26
2022-10-01T11:58:49.417Z,25.05
2022-10-01T12:03:52.225Z,25.51
2022-10-01T12:09:15.752Z,24.59
2022-10-01T12:14:29.640Z,23.15
2022-10-01T12:19:36.790Z,21.89
2022-10-01T12:24:44.900Z,21.09
2022-10-01T12:30:32.223Z,20.64
2022-10-01T12:36:03.336Z,20.58
2022-10-01T12:41:15.132Z,20.25
2022-10-01T12:46:27.464Z,19.94
2022-10-01T12:51:37.260Z,19.54
2022-10-01T12:56:55.282Z,19.10
2022-10-01T13:02:08.113Z,18.78
2022-10-01T13:07:10.855Z,18.46
2022-10-01T13:12:32.149Z,18.15
2022-10-01T13:17:46.178Z,17.92
2022-10-01T13:23:09.192Z,17.80
2022-10-01T13:28:28.306Z,17.78
2022-10-01T13:33:33.018Z,17.71
2022-10-01T13:38:38.789Z,17.60
2022-10-01T13:43:49.284Z,17.53
2022-10-01T13:48:52.688Z,17.49
2022-10-01T13:54:01.532Z,17.48
2022-10-01T13:59:25.316Z,17.51
2022-10-01T14:04:43.683Z,17.49
2022-10-01T14:09:50.456Z,17.32
2022-10-01T14:15:15.798Z,17.18
2022-10-01T14:20:21.069Z,16.95
2022-10-01T14:25:53.618Z,16.77
2022-10-01T14:31:08.903Z,16.66
2022-10-01T14:36:32.462Z,16.51
2022-10-01T14:41:35.864Z,16.36
2022-10-01T14:46:38.784Z,16.27
2022-10-01T14:51:51.514Z,16.16
2022-10-01T14:56:55.251Z,16.00
2022-10-01T15:02:02.091Z,15.84
2022-10-01T15:07:13.577Z,15.68
2022-10-01T15:12:19.293Z,15.54
2022-10-01T15:17:25.482Z,15.41
2022-10-01T15:22:30.165Z,15.29
2022-10-01T15:27:33.635Z,15.20
2022-10-01T15:32:36.547Z,15.11
2022-10-01T15:37:40.435Z,15.02
2022-10-01T15:43:19.423Z,14.93
2022-10-01T15:48:32.763Z,14.82
2022-10-01T15:53:35.713Z,14.71
2022-10-01T15:58:46.051Z,14.62
2022-10-01T16:03:51.918Z,14.51
2022-10-01T16:09:14.743Z,14.40
2022-10-01T16:14:42.883Z,14.32
2022-10-01T16:19:48.055Z,14.21
2022-10-01T16:24:58.974Z,14.13
2022-10-01T16:30:12.117Z,14.08
2022-10-01T16:35:16.172Z,14.07
2022-10-01T16:40:21.078Z,14.04
2022-10-01T16:45:26.791Z,13.99
2022-10-01T16:50:30.240Z,13.93
2022-10-01T16:55:36.678Z,13.88
2022-10-01T17:00:39.569Z,13.80
2022-10-01T17:05:43.939Z,13.71
2022-10-01T17:10:59.988Z,13.64
2022-10-01T17:16:06.054Z,13.58
2022-10-01T17:21:09.590Z,13.53
2022-10-01T17:26:12.375Z,13.51
2022-10-01T17:31:18.023Z,13.53
2022-10-01T17:36:21.254Z,13.53
2022-10-01T17:41:23.999Z,13.50
2022-10-01T17:46:26.753Z,13.46
2022-10-01T17:51:29.453Z,13.41
2022-10-01T17:56:33.094Z,13.37
2022-10-01T18:01:36.152Z,13.34
2022-10-01T18:06:40.283Z,13.36
2022-10-01T18:11:43.113Z,13.35
2022-10-01T18:16:45.863Z,13.34
2022-10-01T18:21:51.234Z,13.30
2022-10-01T18:26:54.588Z,13.24
2022-10-01T18:32:16.129Z,13.18
2022-10-01T18:37:44.018Z,13.17
2022-10-01T18:42:51.804Z,13.12
2022-10-01T18:48:21.802Z,13.09
2022-10-01T18:53:44.440Z,13.03
2022-10-01T18:58:52.885Z,13.00
2022-10-01T19:04:37.045Z,13.01
2022-10-01T19:10:07.918Z,13.03
2022-10-01T19:15:40.484Z,13.01
2022-10-01T19:21:03.374Z,12.98
2022-10-01T19:26:21.433Z,12.92
2022-10-01T19:31:36.498Z,12.90
2022-10-01T19:36:45.678Z,12.87
2022-10-01T19:42:14.085Z,12.84
2022-10-01T19:47:27.726Z,12.82
2022-10-01T19:52:35.631Z,12.76
2022-10-01T19:57:41.860Z,12.76
2022-10-01T20:02:52.725Z,12.77
2022-10-01T20:08:27.882Z,12.78
2022-10-01T20:13:38.632Z,12.77
2022-10-01T20:19:13.895Z,12.71
2022-10-01T20:24:35.063Z,12.64
2022-10-01T20:29:52.407Z,12.58
2022-10-01T20:35:30.127Z,12.53
2022-10-01T20:40:40.003Z,12.48
2022-10-01T20:45:46.001Z,12.49
2022-10-01T20:51:14.982Z,12.46
2022-10-01T20:56:23.247Z,12.45
2022-10-01T21:01:30.316Z,12.45
2022-10-01T21:06:42.442Z,12.45
2022-10-01T21:11:53.834Z,12.45
2022-10-01T21:17:18.857Z,12.42
2022-10-01T21:22:43.674Z,12.41
2022-10-01T21:28:14.074Z,12.39
2022-10-01T21:33:22.641Z,12.36
2022-10-01T21:38:44.405Z,12.27
2022-10-01T21:43:56.741Z,12.15
2022-10-01T21:49:09.155Z,12.05
2022-10-01T21:54:20.967Z,12.00
2022-10-01T21:59:42.709Z,11.99
2022-10-01T22:04:52.733Z,11.96
2022-10-01T22:10:01.731Z,11.92
2022-10-01T22:15:20.227Z,11.86
2022-10-01T22:20:28.982Z,11.78
2022-10-01T22:25:36.767Z,11.77
2022-10-01T22:30:41.209Z,11.71
2022-10-01T22:35:51.264Z,11.71
2022-10-01T22:41:06.042Z,11.71
2022-10-01T22:47:11.029Z,11.68
2022-10-01T22:52:25.790Z,11.64
2022-10-01T22:57:49.640Z,11.56
2022-10-01T23:02:58.218Z,11.48
2022-10-01T23:08:00.815Z,11.48
2022-10-01T23:13:42.157Z,11.44
2022-10-01T23:18:56.959Z,11.36
2022-10-01T23:24:25.738Z,11.34
2022-10-01T23:29:54.337Z,11.35
2022-10-01T23:35:15.301Z,11.35
2022-10-01T23:40:21.357Z,11.34
2022-10-01T23:45:26.978Z,11.38
2022-10-01T23:50:54.879Z,11.42
2022-10-01T23:56:16.317Z,11.39
